createdAt,value
2023-01-06T00:01:16.384Z,100479.78
2023-01-06T00:03:43.351Z,100495.41
2023-01-06T00:06:12.191Z,100471.56
2023-01-06T00:08:39.081Z,100483.97
2023-01-06T00:11:09.105Z,100484.84
2023-01-06T00:13:36.243Z,100479.69
2023-01-06T00:16:17.160Z,100480.56
2023-01-06T00:18:44.051Z,100472.63
2023-01-06T00:21:12.515Z,100473.53
2023-01-06T00:23:39.810Z,100473.47
2023-01-06T00:26:08.277Z,100474.38
2023-01-06T00:28:35.612Z,100473.41
2023-01-06T00:31:10.158Z,100477.91
2023-01-06T00:33:37.207Z,100484.91
2023-01-06T00:36:05.071Z,100495.34
2023-01-06T00:38:31.756Z,100490.13
2023-01-06T00:40:58.361Z,100504.03
2023-01-06T00:43:24.935Z,100524.19
2023-01-06T00:45:51.564Z,100509.31
2023-01-06T00:48:18.190Z,100507.66
2023-01-06T00:50:44.790Z,100508.44
2023-01-06T00:53:11.454Z,100512.81
2023-01-06T00:55:38.018Z,100527.75
2023-01-06T00:58:04.600Z,100519.94
2023-01-06T01:00:31.189Z,100531.38
2023-01-06T01:02:57.781Z,100533.16
2023-01-06T01:05:24.365Z,100528.00
2023-01-06T01:07:51.015Z,100543.63
2023-01-06T01:10:17.714Z,100539.31
2023-01-06T01:12:44.288Z,100544.47
2023-01-06T01:15:11.187Z,100540.19
2023-01-06T01:17:37.856Z,100544.53
2023-01-06T01:20:04.644Z,100536.69
2023-01-06T01:22:32.770Z,100540.09
2023-01-06T01:24:59.363Z,100543.63
2023-01-06T01:27:26.009Z,100543.66
2023-01-06T01:29:52.739Z,100546.31
2023-01-06T01:32:19.635Z,100561.19
2023-01-06T01:34:46.210Z,100562.16
2023-01-06T01:37:12.789Z,100558.47
2023-01-06T01:39:39.497Z,100552.47
2023-01-06T01:42:09.914Z,100550.75
2023-01-06T01:44:59.739Z,100561.16
2023-01-06T01:47:35.917Z,100562.06
2023-01-06T01:50:24.476Z,100556.81
2023-01-06T01:52:55.285Z,100546.44
2023-01-06T01:55:22.227Z,100540.38
2023-01-06T01:57:58.793Z,100529.94
2023-01-06T02:00:25.482Z,100545.53
2023-01-06T02:02:52.813Z,100543.00
2023-01-06T02:05:32.293Z,100551.69
2023-01-06T02:08:05.885Z,100554.28
2023-01-06T02:10:32.513Z,100562.94
2023-01-06T02:12:59.794Z,100565.47
2023-01-06T02:15:34.398Z,100575.13
2023-01-06T02:18:42.041Z,100579.53
2023-01-06T02:21:17.029Z,100588.97
2023-01-06T02:24:01.847Z,100587.31
2023-01-06T02:26:34.350Z,100588.97
2023-01-06T02:29:19.548Z,100597.66
2023-01-06T02:32:01.210Z,100601.94
2023-01-06T02:34:38.616Z,100604.53
2023-01-06T02:37:23.479Z,100601.28
2023-01-06T02:40:01.755Z,100602.25
2023-01-06T02:42:46.546Z,100610.09
2023-01-06T02:45:39.881Z,100610.06
2023-01-06T02:48:37.139Z,100608.31
2023-01-06T02:51:16.744Z,100606.59
2023-01-06T02:53:57.298Z,100597.94
2023-01-06T02:56:28.969Z,100604.94
2023-01-06T02:59:00.113Z,100601.34
2023-01-06T03:01:33.330Z,100601.41
2023-01-06T03:04:04.121Z,100611.91
2023-01-06T03:06:33.514Z,100601.41
2023-01-06T03:09:01.390Z,100600.56
2023-01-06T03:11:31.362Z,100600.53
2023-01-06T03:14:08.823Z,100612.69
2023-01-06T03:16:35.576Z,100607.47
2023-01-06T03:19:02.286Z,100610.91
2023-01-06T03:21:38.699Z,100612.72
2023-01-06T03:24:06.943Z,100615.41
2023-01-06T03:26:33.810Z,100624.09
2023-01-06T03:29:02.110Z,100624.13
2023-01-06T03:31:53.584Z,100613.66
2023-01-06T03:34:33.565Z,100621.50
2023-01-06T03:37:37.322Z,100625.88
2023-01-06T03:40:19.955Z,100631.13
2023-01-06T03:42:51.566Z,100632.88
2023-01-06T03:45:53.885Z,100636.38
2023-01-06T03:48:20.486Z,100638.97
2023-01-06T03:50:55.316Z,100637.25
2023-01-06T03:53:30.993Z,100642.44
2023-01-06T03:56:07.513Z,100638.13
2023-01-06T03:58:36.661Z,100636.38
2023-01-06T04:01:04.283Z,100644.25
2023-01-06T04:03:31.110Z,100644.25
2023-01-06T04:05:57.746Z,100652.09
2023-01-06T04:08:24.337Z,100654.75
2023-01-06T04:10:50.912Z,100657.38
2023-01-06T04:13:17.514Z,100655.63
2023-01-06T04:15:44.100Z,100662.56
2023-01-06T04:18:10.701Z,100661.66
2023-01-06T04:20:37.345Z,100659.88
2023-01-06T04:23:03.935Z,100673.00
2023-01-06T04:25:30.545Z,100667.78
2023-01-06T04:27:57.283Z,100674.72
2023-01-06T04:30:23.872Z,100675.66
2023-01-06T04:32:50.472Z,100679.13
2023-01-06T04:35:17.071Z,100675.63
2023-01-06T04:37:43.647Z,100684.28
2023-01-06T04:40:10.680Z,100683.44
2023-01-06T04:42:37.244Z,100688.69
2023-01-06T04:45:04.047Z,100687.84
2023-01-06T04:47:30.647Z,100686.97
2023-01-06T04:49:57.353Z,100690.44
2023-01-06T04:52:23.923Z,100693.06
2023-01-06T04:54:50.496Z,100694.81
2023-01-06T04:57:17.077Z,100694.75
2023-01-06T04:59:43.685Z,100701.78
2023-01-06T05:02:10.262Z,100698.28
2023-01-06T05:04:46.945Z,100696.56
2023-01-06T05:07:15.081Z,100704.38
2023-01-06T05:09:41.689Z,100693.91
2023-01-06T05:12:08.324Z,100707.88
2023-01-06T05:14:34.911Z,100720.97
2023-01-06T05:17:01.511Z,100723.56
2023-01-06T05:19:28.180Z,100726.16
2023-01-06T05:21:54.832Z,100738.34
2023-01-06T05:24:21.430Z,100734.03
2023-01-06T05:26:48.082Z,100741.81
2023-01-06T05:29:16.676Z,100743.44
2023-01-06T05:31:43.574Z,100747.97
2023-01-06T05:34:10.983Z,100750.53
2023-01-06T05:36:37.825Z,100761.00
2023-01-06T05:39:05.706Z,100761.00
2023-01-06T05:41:32.289Z,100764.44
2023-01-06T05:43:58.996Z,100771.47
2023-01-06T05:46:25.624Z,100777.56
2023-01-06T05:48:52.209Z,100767.03
2023-01-06T05:51:18.819Z,100777.44
2023-01-06T05:53:47.239Z,100780.00
2023-01-06T05:56:16.697Z,100773.91
2023-01-06T05:58:49.440Z,100764.34
2023-01-06T06:01:19.614Z,100766.16
2023-01-06T06:03:46.363Z,100769.47
2023-01-06T06:06:13.356Z,100766.13
2023-01-06T06:08:39.998Z,100767.03
2023-01-06T06:11:09.566Z,100773.09
2023-01-06T06:13:36.784Z,100776.63
2023-01-06T06:16:08.448Z,100772.31
2023-01-06T06:18:36.210Z,100774.97
2023-01-06T06:21:04.140Z,100788.03
2023-01-06T06:23:31.620Z,100790.63
2023-01-06T06:25:58.228Z,100800.22
2023-01-06T06:28:24.896Z,100807.22
2023-01-06T06:30:51.559Z,100804.63
2023-01-06T06:33:18.773Z,100805.44
2023-01-06T06:35:45.369Z,100807.19
2023-01-06T06:38:11.962Z,100804.59
2023-01-06T06:40:38.530Z,100806.22
2023-01-06T06:43:05.134Z,100806.13
2023-01-06T06:45:31.778Z,100806.97
2023-01-06T06:47:58.853Z,100800.00
2023-01-06T06:50:25.433Z,100796.47
2023-01-06T06:52:52.024Z,100802.59
2023-01-06T06:55:18.665Z,100807.84
2023-01-06T06:57:45.254Z,100807.78
2023-01-06T07:00:12.294Z,100815.59
2023-01-06T07:02:38.873Z,100813.06
2023-01-06T07:05:05.645Z,100825.31
2023-01-06T07:07:32.292Z,100828.84
2023-01-06T07:09:58.870Z,100841.91
2023-01-06T07:12:25.474Z,100845.34
2023-01-06T07:14:52.099Z,100849.88
2023-01-06T07:17:18.668Z,100853.44
2023-01-06T07:19:45.263Z,100849.06
2023-01-06T07:22:11.952Z,100849.03
2023-01-06T07:24:38.535Z,100839.38
2023-01-06T07:27:05.119Z,100843.63
2023-01-06T07:29:31.738Z,100853.16
2023-01-06T07:31:58.319Z,100846.31
2023-01-06T07:34:24.894Z,100838.44
2023-01-06T07:36:51.507Z,100841.16
2023-01-06T07:39:18.088Z,100850.78
2023-01-06T07:41:44.684Z,100853.38
2023-01-06T07:44:11.339Z,100857.72
2023-01-06T07:46:38.024Z,100867.34
2023-01-06T07:49:04.615Z,100866.47
2023-01-06T07:51:31.276Z,100862.09
2023-01-06T07:53:57.972Z,100870.00
2023-01-06T07:56:24.562Z,100869.13
2023-01-06T07:58:52.059Z,100872.56
2023-01-06T08:01:18.720Z,100874.31
2023-01-06T08:03:45.454Z,100874.31
2023-01-06T08:06:12.663Z,100874.28
2023-01-06T08:08:40.941Z,100862.97
2023-01-06T08:11:11.349Z,100866.44
2023-01-06T08:13:38.407Z,100862.09
2023-01-06T08:16:06.508Z,100848.19
2023-01-06T08:18:33.729Z,100853.41
2023-01-06T08:21:04.313Z,100856.91
2023-01-06T08:23:31.551Z,100852.53
2023-01-06T08:26:02.724Z,100853.41
2023-01-06T08:28:29.547Z,100843.81
2023-01-06T08:30:56.718Z,100835.13
2023-01-06T08:33:23.374Z,100837.75
2023-01-06T08:35:50.292Z,100830.75
2023-01-06T08:38:16.957Z,100829.00
2023-01-06T08:40:44.603Z,100830.75
2023-01-06T08:43:11.232Z,100835.97
2023-01-06T08:45:41.027Z,100835.13
2023-01-06T08:48:07.638Z,100829.00
2023-01-06T08:50:34.248Z,100828.16
2023-01-06T08:53:01.259Z,100828.13
2023-01-06T08:55:27.955Z,100833.34
2023-01-06T08:57:55.133Z,100840.34
2023-01-06T09:00:22.010Z,100840.34
2023-01-06T09:02:48.641Z,100845.56
2023-01-06T09:05:15.534Z,100856.88
2023-01-06T09:07:42.177Z,100863.88
2023-01-06T09:10:09.153Z,100859.53
2023-01-06T09:12:35.744Z,100869.09
2023-01-06T09:15:02.375Z,100870.84
2023-01-06T09:17:30.089Z,100863.88
2023-01-06T09:19:56.752Z,100869.13
2023-01-06T09:22:23.324Z,100869.13
2023-01-06T09:24:49.916Z,100872.59
2023-01-06T09:27:16.609Z,100881.31
2023-01-06T09:29:43.243Z,100875.22
2023-01-06T09:32:09.874Z,100875.22
2023-01-06T09:34:36.529Z,100875.22
2023-01-06T09:37:03.148Z,100869.13
2023-01-06T09:39:29.733Z,100877.84
2023-01-06T09:42:15.180Z,100867.31
2023-01-06T09:44:56.540Z,100868.22
2023-01-06T09:47:39.128Z,100869.09
2023-01-06T09:50:29.417Z,100869.09
2023-01-06T09:53:02.353Z,100869.94
2023-01-06T09:55:39.181Z,100861.19
2023-01-06T09:58:13.306Z,100865.56
2023-01-06T10:00:47.658Z,100859.47
2023-01-06T10:03:19.647Z,100870.84
2023-01-06T10:05:48.927Z,100867.34
2023-01-06T10:08:34.213Z,100865.59
2023-01-06T10:11:19.537Z,100855.09
2023-01-06T10:14:12.273Z,100855.09
2023-01-06T10:16:58.532Z,100859.47
2023-01-06T10:19:46.947Z,100853.25
2023-01-06T10:22:31.483Z,100857.69
2023-01-06T10:25:02.888Z,100849.84
2023-01-06T10:27:32.229Z,100848.94
2023-01-06T10:30:00.215Z,100847.16
2023-01-06T10:32:32.072Z,100846.31
2023-01-06T10:34:58.736Z,100847.09
2023-01-06T10:37:38.779Z,100846.09
2023-01-06T10:40:28.560Z,100844.53
2023-01-06T10:43:08.564Z,100853.25
2023-01-06T10:45:38.181Z,100848.88
2023-01-06T10:48:08.073Z,100851.47
2023-01-06T10:50:35.322Z,100842.78
2023-01-06T10:53:02.201Z,100841.81
2023-01-06T10:55:40.678Z,100841.81
2023-01-06T10:58:20.876Z,100854.81
2023-01-06T11:00:57.663Z,100842.75
2023-01-06T11:03:33.296Z,100847.97
2023-01-06T11:06:17.448Z,100848.66
2023-01-06T11:08:44.839Z,100853.81
2023-01-06T11:11:27.246Z,100849.53
2023-01-06T11:13:59.440Z,100842.31
2023-01-06T11:16:30.182Z,100839.00
2023-01-06T11:19:00.355Z,100840.50
2023-01-06T11:21:45.377Z,100834.47
2023-01-06T11:24:23.714Z,100823.94
2023-01-06T11:26:54.236Z,100828.16
2023-01-06T11:29:31.264Z,100831.72
2023-01-06T11:32:03.788Z,100830.13
2023-01-06T11:34:31.455Z,100828.38
2023-01-06T11:36:59.388Z,100824.94
2023-01-06T11:39:32.251Z,100829.13
2023-01-06T11:42:05.314Z,100828.94
2023-01-06T11:44:36.464Z,100835.81
2023-01-06T11:47:22.231Z,100831.13
2023-01-06T11:49:56.217Z,100823.06
2023-01-06T11:52:32.121Z,100831.28
2023-01-06T11:55:08.047Z,100834.75
2023-01-06T11:58:02.105Z,100831.06
2023-01-06T12:00:45.973Z,100831.72
2023-01-06T12:03:46.519Z,100822.13
2023-01-06T12:06:13.328Z,100823.06
2023-01-06T12:09:11.001Z,100820.19
2023-01-06T12:11:50.419Z,100810.59
2023-01-06T12:14:29.926Z,100818.94
2023-01-06T12:17:30.101Z,100801.47
2023-01-06T12:20:27.979Z,100804.94
2023-01-06T12:23:04.109Z,100799.63
2023-01-06T12:25:44.311Z,100795.97
2023-01-06T12:28:21.645Z,100786.94
2023-01-06T12:31:02.793Z,100792.28
2023-01-06T12:33:44.196Z,100795.69
2023-01-06T12:36:27.267Z,100786.94
2023-01-06T12:38:59.184Z,100792.94
2023-01-06T12:41:40.087Z,100789.53
2023-01-06T12:44:22.130Z,100781.78
2023-01-06T12:47:15.038Z,100789.88
2023-01-06T12:49:47.119Z,100782.72
2023-01-06T12:52:45.876Z,100775.06
2023-01-06T12:55:16.949Z,100774.66
2023-01-06T12:58:23.460Z,100770.97
2023-01-06T13:01:20.995Z,100765.84
2023-01-06T13:04:19.832Z,100766.03
2023-01-06T13:07:05.610Z,100772.00
2023-01-06T13:10:04.813Z,100772.78
2023-01-06T13:12:56.580Z,100765.03
2023-01-06T13:15:27.721Z,100769.59
2023-01-06T13:18:06.369Z,100770.81
2023-01-06T13:20:43.255Z,100768.19
2023-01-06T13:23:40.743Z,100768.59
2023-01-06T13:26:33.939Z,100773.25
2023-01-06T13:29:19.519Z,100769.59
2023-01-06T13:32:10.346Z,100777.38
2023-01-06T13:34:40.056Z,100781.81
2023-01-06T13:37:06.819Z,100778.22
2023-01-06T13:40:02.771Z,100780.94
2023-01-06T13:42:38.347Z,100794.09
2023-01-06T13:45:13.080Z,100787.09
2023-01-06T13:47:41.704Z,100791.75
2023-01-06T13:50:12.964Z,100795.28
2023-01-06T13:52:40.290Z,100789.31
2023-01-06T13:55:23.739Z,100778.81
2023-01-06T13:57:50.911Z,100776.91
2023-01-06T14:00:20.652Z,100774.44
2023-01-06T14:02:50.593Z,100771.38
2023-01-06T14:05:20.162Z,100774.78
2023-01-06T14:08:02.178Z,100766.16
2023-01-06T14:10:46.696Z,100774.44
2023-01-06T14:13:23.854Z,100772.25
2023-01-06T14:16:12.247Z,100768.72
2023-01-06T14:18:49.223Z,100762.38
2023-01-06T14:21:20.209Z,100763.06
2023-01-06T14:23:59.940Z,100760.84
2023-01-06T14:26:48.260Z,100759.22
2023-01-06T14:29:39.865Z,100767.00
2023-01-06T14:32:10.341Z,100761.59
2023-01-06T14:34:41.274Z,100758.25
2023-01-06T14:37:16.689Z,100750.63
2023-01-06T14:39:48.637Z,100771.53
2023-01-06T14:42:30.061Z,100774.19
2023-01-06T14:45:01.053Z,100771.00
2023-01-06T14:47:54.518Z,100774.88
2023-01-06T14:50:46.076Z,100768.75
2023-01-06T14:53:25.991Z,100771.63
2023-01-06T14:55:53.530Z,100772.44
2023-01-06T14:58:34.760Z,100763.03
2023-01-06T15:01:01.400Z,100773.72
2023-01-06T15:03:29.662Z,100765.72
2023-01-06T15:06:18.604Z,100767.34
2023-01-06T15:08:45.275Z,100774.28
2023-01-06T15:11:29.026Z,100767.28
2023-01-06T15:13:55.787Z,100767.44
2023-01-06T15:16:35.510Z,100772.22
2023-01-06T15:19:06.350Z,100772.31
2023-01-06T15:21:39.226Z,100775.56
2023-01-06T15:24:06.403Z,100774.16
2023-01-06T15:26:33.031Z,100766.22
2023-01-06T15:29:06.296Z,100766.56
2023-01-06T15:31:36.265Z,100762.13
2023-01-06T15:34:07.404Z,100765.75
2023-01-06T15:36:35.429Z,100762.16
2023-01-06T15:39:04.640Z,100768.28
2023-01-06T15:41:33.155Z,100763.19
2023-01-06T15:44:20.014Z,100765.06
2023-01-06T15:46:49.824Z,100762.50
2023-01-06T15:49:26.741Z,100763.38
2023-01-06T15:51:57.281Z,100755.50
2023-01-06T15:54:25.977Z,100765.97
2023-01-06T15:56:52.698Z,100770.28
2023-01-06T15:59:20.558Z,100773.72
2023-01-06T16:01:51.556Z,100763.19
2023-01-06T16:04:18.437Z,100772.97
2023-01-06T16:06:45.326Z,100772.97
2023-01-06T16:09:20.992Z,100774.75
2023-01-06T16:12:09.368Z,100778.19
2023-01-06T16:14:38.449Z,100781.75
2023-01-06T16:17:29.452Z,100777.34
2023-01-06T16:19:58.841Z,100782.50
2023-01-06T16:22:38.324Z,100778.22
2023-01-06T16:25:27.630Z,100777.38
2023-01-06T16:27:58.819Z,100784.47
2023-01-06T16:30:30.288Z,100787.09
2023-01-06T16:32:58.049Z,100794.03
2023-01-06T16:35:27.241Z,100789.59
2023-01-06T16:37:53.957Z,100795.81
2023-01-06T16:40:23.889Z,100801.94
2023-01-06T16:42:57.215Z,100793.09
2023-01-06T16:45:37.378Z,100797.53
2023-01-06T16:48:04.291Z,100802.81
2023-01-06T16:50:30.826Z,100795.00
2023-01-06T16:53:18.654Z,100802.81
2023-01-06T16:55:45.402Z,100796.72
2023-01-06T16:58:16.581Z,100792.34
2023-01-06T17:00:44.536Z,100792.34
2023-01-06T17:03:14.520Z,100793.25
2023-01-06T17:05:41.198Z,100793.22
2023-01-06T17:08:16.304Z,100793.22
2023-01-06T17:10:43.609Z,100788.91
2023-01-06T17:13:14.336Z,100785.44
2023-01-06T17:15:41.297Z,100775.84
2023-01-06T17:18:20.183Z,100761.88
2023-01-06T17:20:46.851Z,100757.50
2023-01-06T17:23:13.468Z,100765.31
2023-01-06T17:25:40.835Z,100781.88
2023-01-06T17:28:34.605Z,100780.16
2023-01-06T17:31:01.289Z,100785.38
2023-01-06T17:33:28.727Z,100787.16
2023-01-06T17:35:56.972Z,100789.78
2023-01-06T17:38:24.531Z,100791.53
2023-01-06T17:40:51.781Z,100789.78
2023-01-06T17:43:21.428Z,100792.41
2023-01-06T17:45:48.044Z,100794.13
2023-01-06T17:48:14.646Z,100789.78
2023-01-06T17:50:54.610Z,100787.16
2023-01-06T17:53:31.003Z,100781.88
2023-01-06T17:56:00.834Z,100791.47
2023-01-06T17:58:30.629Z,100795.84
2023-01-06T18:00:57.752Z,100787.09
2023-01-06T18:03:26.479Z,100799.31
2023-01-06T18:06:28.782Z,100785.38
2023-01-06T18:09:04.381Z,100791.41
2023-01-06T18:11:42.444Z,100792.19
2023-01-06T18:14:17.878Z,100794.75
2023-01-06T18:16:46.248Z,100792.31
2023-01-06T18:19:42.331Z,100804.56
2023-01-06T18:22:21.665Z,100804.56
2023-01-06T18:24:51.097Z,100801.09
2023-01-06T18:27:36.459Z,100802.72
2023-01-06T18:30:19.628Z,100813.13
2023-01-06T18:32:48.137Z,100805.00
2023-01-06T18:35:17.764Z,100813.00
2023-01-06T18:37:44.497Z,100812.84
2023-01-06T18:40:14.583Z,100814.75
2023-01-06T18:42:43.949Z,100817.44
2023-01-06T18:45:26.092Z,100810.50
2023-01-06T18:48:02.390Z,100811.50
2023-01-06T18:50:48.846Z,100808.94
2023-01-06T18:53:15.392Z,100817.44
2023-01-06T18:55:50.707Z,100819.19
2023-01-06T18:58:36.341Z,100826.22
2023-01-06T19:01:15.400Z,100823.66
2023-01-06T19:03:49.638Z,100816.72
2023-01-06T19:06:16.239Z,100815.88
2023-01-06T19:08:46.595Z,100816.72
2023-01-06T19:11:19.218Z,100822.88
2023-01-06T19:13:46.827Z,100815.88
2023-01-06T19:16:33.010Z,100815.94
2023-01-06T19:19:08.375Z,100815.94
2023-01-06T19:21:35.942Z,100815.06
2023-01-06T19:24:28.461Z,100812.44
2023-01-06T19:26:57.333Z,100806.31
2023-01-06T19:29:31.227Z,100810.69
2023-01-06T19:32:09.746Z,100813.31
2023-01-06T19:34:36.399Z,100809.78
2023-01-06T19:37:03.063Z,100800.22
2023-01-06T19:39:40.648Z,100786.31
2023-01-06T19:42:23.807Z,100785.44
2023-01-06T19:44:53.265Z,100783.56
2023-01-06T19:47:24.668Z,100782.53
2023-01-06T19:49:54.553Z,100784.28
2023-01-06T19:52:33.363Z,100776.47
2023-01-06T19:55:15.040Z,100774.06
2023-01-06T19:57:44.597Z,100771.41
2023-01-06T20:00:38.025Z,100779.22
2023-01-06T20:03:33.125Z,100776.63
2023-01-06T20:05:59.849Z,100780.94
2023-01-06T20:08:26.487Z,100774.78
2023-01-06T20:10:53.073Z,100772.97
2023-01-06T20:13:19.672Z,100777.41
2023-01-06T20:15:46.311Z,100768.66
2023-01-06T20:18:13.130Z,100772.09
2023-01-06T20:20:39.815Z,100771.19
2023-01-06T20:23:06.401Z,100769.31
2023-01-06T20:25:33.026Z,100772.13
2023-01-06T20:27:59.635Z,100770.53
2023-01-06T20:30:26.596Z,100766.97
2023-01-06T20:32:53.281Z,100775.59
2023-01-06T20:35:20.009Z,100779.06
2023-01-06T20:37:46.869Z,100788.00
2023-01-06T20:40:13.685Z,100787.16
2023-01-06T20:42:40.259Z,100787.94
2023-01-06T20:45:07.345Z,100788.84
2023-01-06T20:47:33.929Z,100793.25
2023-01-06T20:50:00.545Z,100798.47
2023-01-06T20:52:27.199Z,100791.53
2023-01-06T20:54:53.973Z,100793.25
2023-01-06T20:57:20.667Z,100795.00
2023-01-06T20:59:47.326Z,100791.53
2023-01-06T21:02:14.046Z,100796.75
2023-01-06T21:04:40.722Z,100792.38
2023-01-06T21:07:07.471Z,100793.25
2023-01-06T21:09:37.312Z,100792.25
2023-01-06T21:12:04.130Z,100784.50
2023-01-06T21:14:30.717Z,100795.00
2023-01-06T21:16:57.398Z,100793.25
2023-01-06T21:19:24.066Z,100794.13
2023-01-06T21:21:50.666Z,100786.19
2023-01-06T21:24:17.258Z,100777.47
2023-01-06T21:26:43.831Z,100786.06
2023-01-06T21:29:10.431Z,100782.59
2023-01-06T21:31:37.116Z,100781.84
2023-01-06T21:34:03.730Z,100777.41
2023-01-06T21:36:30.306Z,100777.38
2023-01-06T21:38:56.905Z,100775.75
2023-01-06T21:41:25.804Z,100779.22
2023-01-06T21:43:52.391Z,100785.31
2023-01-06T21:46:19.110Z,100781.00
2023-01-06T21:48:46.254Z,100784.47
2023-01-06T21:51:12.982Z,100788.88
2023-01-06T21:53:40.075Z,100787.03
2023-01-06T21:56:07.236Z,100801.03
2023-01-06T21:58:33.965Z,100820.22
2023-01-06T22:01:00.627Z,100799.38
2023-01-06T22:03:27.352Z,100787.06
2023-01-06T22:05:54.332Z,100790.63
2023-01-06T22:08:21.270Z,100788.06
2023-01-06T22:10:48.126Z,100792.41
2023-01-06T22:13:19.539Z,100798.50
2023-01-06T22:15:46.925Z,100800.25
2023-01-06T22:18:13.780Z,100776.72
2023-01-06T22:20:40.737Z,100781.94
2023-01-06T22:23:12.897Z,100773.19
2023-01-06T22:25:39.525Z,100775.81
2023-01-06T22:28:06.151Z,100772.31
2023-01-06T22:30:32.969Z,100772.34
2023-01-06T22:32:59.603Z,100767.13
2023-01-06T22:35:26.286Z,100765.38
2023-01-06T22:37:52.956Z,100773.16
2023-01-06T22:40:20.402Z,100768.69
2023-01-06T22:42:47.040Z,100762.53
2023-01-06T22:45:13.703Z,100766.06
2023-01-06T22:47:40.382Z,100761.84
2023-01-06T22:50:07.485Z,100766.25
2023-01-06T22:52:34.380Z,100777.56
2023-01-06T22:55:01.425Z,100783.63
2023-01-06T22:57:28.620Z,100775.84
2023-01-06T22:59:55.508Z,100773.16
2023-01-06T23:02:22.650Z,100768.00
2023-01-06T23:04:49.634Z,100773.25
2023-01-06T23:07:16.949Z,100770.59
2023-01-06T23:09:43.838Z,100770.63
2023-01-06T23:12:10.667Z,100768.00
2023-01-06T23:14:37.584Z,100768.88
2023-01-06T23:17:04.428Z,100771.44
2023-01-06T23:19:31.320Z,100764.44
2023-01-06T23:21:58.211Z,100772.38
2023-01-06T23:24:25.063Z,100768.00
2023-01-06T23:26:51.992Z,100767.97
2023-01-06T23:29:18.945Z,100758.41
2023-01-06T23:31:46.592Z,100754.91
2023-01-06T23:34:16.777Z,100759.28
2023-01-06T23:36:44.403Z,100754.94
2023-01-06T23:39:13.849Z,100754.94
2023-01-06T23:41:41.017Z,100761.91
2023-01-06T23:44:13.807Z,100758.44
2023-01-06T23:46:40.572Z,100758.41
2023-01-06T23:49:09.301Z,100754.06
2023-01-06T23:51:35.886Z,100755.81
2023-01-06T23:54:04.278Z,100747.97
2023-01-06T23:56:32.966Z,100755.78
2023-01-06T23:59:00.731Z,100757.53
